Terminal Aerodrome Forecast
Issued by NWS Missoula, MT

Home | Current Version | Previous Version | Text Only | Print | Product List | Glossary On
Versions: 1 2 3 4 5 6 7 8 9 10 11 12 13 14
000
FTUS45 KMSO 071732
TAFMSO
TAF
KMSO 071732Z 0718/0818 35014G23KT P6SM VCSH SCT080
     FM072100 34012KT P6SM -SHRA VCTS SCT040CB BKN060
     FM080300 36015G25KT P6SM -SHRA SCT050 BKN060
     FM080600 10011KT P6SM SCT070=

USA.gov is the U.S. government's official web portal to all federal, state and local government web resources and services.